createdAt,value
2023-01-08T00:01:52.909Z,64.10
2023-01-08T00:04:22.327Z,64.00
2023-01-08T00:06:53.499Z,64.10
2023-01-08T00:09:23.558Z,64.20
2023-01-08T00:11:52.957Z,64.10
2023-01-08T00:14:24.251Z,64.20
2023-01-08T00:16:53.578Z,64.10
2023-01-08T00:19:22.979Z,64.10
2023-01-08T00:21:52.591Z,64.10
2023-01-08T00:24:20.640Z,64.10
2023-01-08T00:26:49.835Z,64.10
2023-01-08T00:29:16.863Z,64.10
2023-01-08T00:31:45.357Z,64.10
2023-01-08T00:34:12.175Z,64.10
2023-01-08T00:36:41.229Z,64.10
2023-01-08T00:39:08.063Z,64.10
2023-01-08T00:41:35.004Z,64.10
2023-01-08T00:44:01.934Z,64.10
2023-01-08T00:46:32.053Z,64.10
2023-01-08T00:49:01.368Z,64.00
2023-01-08T00:51:28.243Z,64.00
2023-01-08T00:53:55.147Z,64.00
2023-01-08T00:56:24.048Z,64.00
2023-01-08T00:58:50.976Z,64.00
2023-01-08T01:01:18.304Z,64.00
2023-01-08T01:03:45.422Z,64.10
2023-01-08T01:06:14.528Z,64.00
2023-01-08T01:08:45.838Z,64.10
2023-01-08T01:11:25.767Z,64.10
2023-01-08T01:13:57.968Z,64.10
2023-01-08T01:16:28.131Z,64.10
2023-01-08T01:18:56.583Z,64.10
2023-01-08T01:21:33.147Z,64.10
2023-01-08T01:24:05.166Z,64.20
2023-01-08T01:26:33.825Z,64.20
2023-01-08T01:29:01.211Z,64.10
2023-01-08T01:31:34.476Z,64.10
2023-01-08T01:34:02.025Z,64.40
2023-01-08T01:36:36.749Z,64.10
2023-01-08T01:39:04.590Z,64.10
2023-01-08T01:41:45.617Z,64.10
2023-01-08T01:44:37.360Z,64.00
2023-01-08T01:47:30.264Z,64.10
2023-01-08T01:50:05.987Z,64.00
2023-01-08T01:52:45.576Z,63.90
2023-01-08T01:55:17.038Z,63.90
2023-01-08T01:57:53.760Z,63.80
2023-01-08T02:00:23.208Z,63.80
2023-01-08T02:02:53.158Z,63.80
2023-01-08T02:05:28.955Z,63.70
2023-01-08T02:08:09.682Z,63.70
2023-01-08T02:10:55.861Z,63.70
2023-01-08T02:13:42.643Z,63.70
2023-01-08T02:16:21.326Z,63.70
2023-01-08T02:18:57.324Z,63.60
2023-01-08T02:21:45.021Z,63.60
2023-01-08T02:24:51.553Z,63.60
2023-01-08T02:27:21.072Z,63.50
2023-01-08T02:29:56.796Z,63.50
2023-01-08T02:32:28.021Z,63.50
2023-01-08T02:34:57.622Z,63.50
2023-01-08T02:37:24.890Z,63.50
2023-01-08T02:40:21.937Z,63.60
2023-01-08T02:43:28.383Z,63.70
2023-01-08T02:46:05.587Z,63.70
2023-01-08T02:48:49.868Z,63.60
2023-01-08T11:32:48.813Z,73.30
2023-01-08T11:35:29.760Z,75.30
2023-01-08T11:38:05.710Z,75.10
2023-01-08T11:40:48.232Z,74.60
2023-01-08T11:44:19.176Z,74.20
2023-01-08T11:46:58.446Z,73.90
2023-01-08T11:49:51.063Z,73.40
2023-01-08T11:52:47.221Z,73.10
2023-01-08T11:55:32.987Z,72.80
2023-01-08T11:58:31.515Z,72.60
2023-01-08T12:01:35.560Z,72.50
2023-01-08T12:04:25.120Z,72.30
2023-01-08T12:07:12.388Z,72.10
2023-01-08T12:09:56.756Z,71.90
2023-01-08T12:13:08.989Z,71.80
2023-01-08T12:16:19.592Z,71.80
2023-01-08T12:19:09.782Z,71.80
2023-01-08T12:22:09.076Z,71.80
2023-01-08T12:25:25.702Z,71.80
2023-01-08T12:28:14.744Z,71.50
2023-01-08T12:32:01.997Z,71.30
2023-01-08T12:35:09.279Z,71.20
2023-01-08T12:38:19.049Z,71.30
2023-01-08T12:40:56.209Z,71.20
2023-01-08T12:43:43.626Z,71.20
2023-01-08T12:46:16.931Z,71.20
2023-01-08T12:48:51.877Z,71.20
2023-01-08T12:51:38.701Z,71.20
2023-01-08T12:54:44.622Z,71.20
2023-01-08T12:57:38.701Z,71.30
2023-01-08T13:00:17.161Z,71.30
2023-01-08T13:03:04.583Z,71.30
2023-01-08T13:05:37.655Z,71.20
2023-01-08T13:08:22.302Z,71.20
2023-01-08T13:10:55.019Z,71.30
2023-01-08T13:13:31.176Z,71.20
2023-01-08T13:16:14.366Z,71.70
2023-01-08T13:19:04.610Z,70.80
2023-01-08T13:21:44.531Z,70.60
2023-01-08T13:24:39.428Z,70.80
2023-01-08T13:27:17.563Z,70.60
2023-01-08T13:29:51.601Z,70.70
2023-01-08T13:32:49.723Z,70.70
2023-01-08T13:35:16.611Z,70.60
2023-01-08T13:38:11.336Z,70.60
2023-01-08T13:40:49.754Z,70.70
2023-01-08T13:43:24.627Z,70.70
2023-01-08T13:46:00.161Z,70.60
2023-01-08T13:49:00.006Z,70.60
2023-01-08T13:51:38.837Z,70.60
2023-01-08T13:54:15.012Z,70.50
2023-01-08T13:56:48.734Z,70.50
2023-01-08T13:59:30.300Z,70.50
2023-01-08T14:01:59.950Z,70.60
2023-01-08T14:04:29.814Z,70.60
2023-01-08T14:07:14.665Z,70.60
2023-01-08T14:09:46.807Z,70.50
2023-01-08T14:12:23.018Z,70.50
2023-01-08T14:14:59.705Z,70.60
2023-01-08T14:17:33.732Z,70.60
2023-01-08T14:20:00.761Z,70.60
2023-01-08T14:22:37.894Z,70.70
2023-01-08T14:25:07.576Z,70.70
2023-01-08T14:27:37.677Z,70.70
2023-01-08T14:30:18.791Z,70.80
2023-01-08T14:32:53.371Z,70.80
2023-01-08T14:35:31.316Z,70.70
2023-01-08T14:38:02.385Z,70.60
2023-01-08T14:40:41.505Z,70.70
2023-01-08T14:43:18.307Z,70.60
2023-01-08T14:45:52.350Z,70.60
2023-01-08T14:48:40.657Z,70.60
2023-01-08T14:51:16.762Z,70.60
2023-01-08T14:53:50.667Z,70.50
2023-01-08T14:56:31.867Z,70.60
2023-01-08T14:59:00.156Z,70.50
2023-01-08T15:01:33.477Z,70.50
2023-01-08T15:04:17.645Z,70.50
2023-01-08T15:06:45.825Z,70.50
2023-01-08T15:09:30.022Z,70.40
2023-01-08T15:12:04.070Z,70.40
2023-01-08T15:14:37.297Z,70.40
2023-01-08T15:17:20.991Z,70.40
2023-01-08T15:19:59.299Z,70.40
2023-01-08T15:22:33.305Z,70.40
2023-01-08T15:25:04.542Z,70.40
2023-01-08T15:27:34.266Z,70.40
2023-01-08T15:30:23.710Z,70.40
2023-01-08T15:32:53.141Z,70.40
2023-01-08T15:35:20.435Z,70.40
2023-01-08T15:37:49.579Z,70.40
2023-01-08T15:40:18.459Z,70.50
2023-01-08T15:43:09.072Z,70.40
2023-01-08T15:45:42.996Z,70.50
2023-01-08T15:48:16.051Z,70.40
2023-01-08T15:50:48.170Z,70.50
2023-01-08T15:53:25.303Z,70.50
2023-01-08T15:55:54.511Z,70.50
2023-01-08T15:58:25.768Z,70.50
2023-01-08T16:00:52.748Z,70.60
2023-01-08T16:03:24.081Z,70.60
2023-01-08T16:05:51.014Z,70.60
2023-01-08T16:08:22.127Z,70.60
2023-01-08T16:10:57.370Z,70.60
2023-01-08T16:13:28.932Z,70.70
2023-01-08T16:16:00.732Z,70.70
2023-01-08T16:18:31.167Z,71.30
2023-01-08T16:21:01.425Z,70.70
2023-01-08T16:23:31.379Z,70.80
2023-01-08T16:26:04.658Z,70.80
2023-01-08T16:28:31.762Z,70.80
2023-01-08T16:31:01.929Z,70.80
2023-01-08T16:33:31.668Z,70.80
2023-01-08T16:36:01.140Z,71.40
2023-01-08T16:38:34.784Z,70.80
2023-01-08T16:41:06.964Z,70.80
2023-01-08T16:43:45.212Z,70.80
2023-01-08T16:46:18.029Z,70.80
2023-01-08T16:48:48.519Z,70.70
2023-01-08T16:51:16.437Z,70.70
2023-01-08T16:53:45.576Z,70.70
2023-01-08T16:56:15.715Z,70.70
2023-01-08T16:58:42.588Z,70.80
2023-01-08T17:01:11.432Z,70.70
2023-01-08T17:03:40.805Z,70.70
2023-01-08T17:06:12.416Z,70.70
2023-01-08T17:08:43.045Z,70.70
2023-01-08T17:11:16.595Z,70.70
2023-01-08T17:13:48.247Z,70.70
2023-01-08T17:16:18.080Z,70.70
2023-01-08T17:18:47.873Z,70.60
2023-01-08T17:21:17.974Z,70.60
2023-01-08T17:23:48.202Z,70.60
2023-01-08T17:26:23.165Z,70.70
2023-01-08T17:28:50.019Z,70.70
2023-01-08T17:31:22.671Z,70.70
2023-01-08T17:33:54.821Z,70.70
2023-01-08T17:36:32.117Z,70.70
2023-01-08T17:39:01.331Z,70.70
2023-01-08T17:41:52.915Z,70.70
2023-01-08T17:44:26.230Z,70.70
2023-01-08T17:46:55.283Z,70.70
2023-01-08T17:49:22.267Z,70.70
2023-01-08T17:51:49.180Z,70.70
2023-01-08T17:54:17.263Z,70.70
2023-01-08T17:56:48.796Z,70.70
2023-01-08T17:59:18.726Z,70.70
2023-01-08T18:01:49.028Z,70.70
2023-01-08T18:04:18.284Z,70.60
2023-01-08T18:06:45.448Z,70.70
2023-01-08T18:09:15.055Z,70.60
2023-01-08T18:11:43.995Z,70.60
2023-01-08T18:14:15.065Z,70.60
2023-01-08T18:16:49.319Z,70.60
2023-01-08T18:19:25.223Z,70.50
2023-01-08T18:21:52.223Z,70.50
2023-01-08T18:24:19.144Z,70.50
2023-01-08T18:26:50.703Z,70.40
2023-01-08T18:29:17.572Z,70.40
2023-01-08T18:31:49.245Z,70.40
2023-01-08T18:34:23.774Z,70.40
2023-01-08T18:36:55.209Z,70.40
2023-01-08T18:39:28.172Z,70.40
2023-01-08T18:42:15.883Z,70.30
2023-01-08T18:44:48.352Z,70.30
2023-01-08T18:47:17.213Z,70.30
2023-01-08T18:49:44.067Z,70.40
2023-01-08T18:52:14.084Z,70.40
2023-01-08T18:54:45.233Z,70.40
2023-01-08T18:57:14.724Z,70.40
2023-01-08T18:59:41.721Z,70.40
2023-01-08T19:02:20.609Z,70.50
2023-01-08T19:04:51.016Z,70.50
2023-01-08T19:07:22.781Z,70.50
2023-01-08T19:09:56.869Z,70.50
2023-01-08T19:12:27.120Z,70.60
2023-01-08T19:14:58.933Z,70.50
2023-01-08T19:17:35.052Z,70.50
2023-01-08T19:20:10.632Z,70.50
2023-01-08T19:22:37.544Z,70.40
2023-01-08T19:25:04.839Z,70.50
2023-01-08T19:27:39.025Z,70.50
2023-01-08T19:30:11.521Z,70.50
2023-01-08T19:32:41.092Z,70.50
2023-01-08T19:35:14.460Z,70.40
2023-01-08T19:37:50.325Z,70.40
2023-01-08T19:40:21.693Z,70.40
2023-01-08T19:43:07.453Z,70.50
2023-01-08T19:45:37.366Z,70.40
2023-01-08T19:48:09.261Z,70.40
2023-01-08T19:50:43.544Z,70.30
2023-01-08T19:53:15.361Z,70.40
2023-01-08T19:55:42.227Z,70.30
2023-01-08T19:58:14.155Z,70.30
2023-01-08T20:00:45.683Z,70.40
2023-01-08T20:03:24.999Z,70.30
2023-01-08T20:05:52.784Z,70.30
2023-01-08T20:08:24.228Z,70.30
2023-01-08T20:10:53.178Z,70.30
2023-01-08T20:13:22.041Z,70.40
2023-01-08T20:15:58.273Z,70.30
2023-01-08T20:18:30.056Z,70.20
2023-01-08T20:21:08.631Z,70.30
2023-01-08T20:23:36.707Z,70.20
2023-01-08T20:26:16.172Z,70.20
2023-01-08T20:28:46.992Z,70.20
2023-01-08T20:31:21.247Z,70.20
2023-01-08T20:33:52.205Z,70.10
2023-01-08T20:36:25.721Z,70.20
2023-01-08T20:39:02.154Z,70.20
2023-01-08T20:41:29.872Z,70.20
2023-01-08T20:43:59.165Z,70.30
2023-01-08T20:46:31.438Z,70.20
2023-01-08T20:49:06.700Z,70.20
2023-01-08T20:51:39.705Z,70.30
2023-01-08T20:54:15.553Z,70.30
2023-01-08T20:56:45.499Z,70.30
2023-01-08T20:59:17.637Z,70.20
2023-01-08T21:01:44.631Z,70.20
2023-01-08T21:04:13.823Z,70.20
2023-01-08T21:06:43.659Z,70.30
2023-01-08T21:09:11.999Z,70.30
2023-01-08T21:11:42.149Z,70.30
2023-01-08T21:14:11.983Z,70.20
2023-01-08T21:16:40.371Z,70.30
2023-01-08T21:19:10.461Z,70.20
2023-01-08T21:21:40.741Z,70.30
2023-01-08T21:24:12.900Z,70.30
2023-01-08T21:26:45.513Z,70.30
2023-01-08T21:29:19.665Z,70.60
2023-01-08T21:31:49.244Z,70.30
2023-01-08T21:34:21.487Z,70.30
2023-01-08T21:36:48.365Z,70.30
2023-01-08T21:39:15.253Z,70.30
2023-01-08T21:42:00.525Z,70.30
2023-01-08T21:44:48.357Z,70.30
2023-01-08T21:47:17.975Z,70.30
2023-01-08T21:49:50.916Z,70.40
2023-01-08T21:52:36.249Z,70.40
2023-01-08T21:55:05.840Z,70.30
2023-01-08T21:57:42.465Z,70.30
2023-01-08T22:00:11.283Z,70.30
2023-01-08T22:02:40.713Z,70.30
2023-01-08T22:05:10.133Z,70.30
2023-01-08T22:07:37.305Z,70.30
2023-01-08T22:10:06.348Z,70.30
2023-01-08T22:12:35.560Z,70.30
2023-01-08T22:15:04.940Z,70.30
2023-01-08T22:17:36.718Z,70.30
2023-01-08T22:20:11.814Z,70.40
2023-01-08T22:22:46.911Z,70.40
2023-01-08T22:25:16.189Z,70.40
2023-01-08T22:27:45.497Z,70.40
2023-01-08T22:30:17.416Z,70.50
2023-01-08T22:32:48.664Z,70.40
2023-01-08T22:35:20.167Z,70.40
2023-01-08T22:37:47.105Z,70.40
2023-01-08T22:40:18.664Z,70.30
2023-01-08T22:42:47.572Z,70.40
2023-01-08T22:45:16.967Z,70.40
2023-01-08T22:47:48.341Z,70.40
2023-01-08T22:50:15.508Z,70.40
2023-01-08T22:52:44.664Z,70.40
2023-01-08T22:55:16.916Z,71.00
2023-01-08T22:57:45.792Z,70.40
2023-01-08T23:00:15.607Z,70.40
2023-01-08T23:02:44.732Z,70.40
2023-01-08T23:05:11.578Z,70.50
2023-01-08T23:07:40.584Z,70.50
2023-01-08T23:10:08.080Z,70.50
2023-01-08T23:12:39.517Z,70.50
2023-01-08T23:15:09.783Z,70.40
2023-01-08T23:17:47.967Z,71.10
2023-01-08T23:20:19.633Z,70.40
2023-01-08T23:22:49.117Z,70.50
2023-01-08T23:25:16.609Z,70.40
2023-01-08T23:27:46.190Z,70.40
2023-01-08T23:30:13.234Z,70.50
2023-01-08T23:32:40.230Z,70.50
2023-01-08T23:35:09.680Z,70.60
2023-01-08T23:37:43.239Z,70.60
2023-01-08T23:40:14.078Z,70.60
2023-01-08T23:42:40.896Z,70.60
2023-01-08T23:45:11.148Z,70.60
2023-01-08T23:47:42.864Z,70.60
2023-01-08T23:50:10.696Z,70.70
2023-01-08T23:52:42.176Z,70.60
2023-01-08T23:55:11.598Z,70.70
2023-01-08T23:57:40.451Z,70.70
